createdAt,value
2023-01-04T00:02:25.588Z,4.12
2023-01-04T00:04:52.365Z,4.16
2023-01-04T00:07:19.064Z,4.14
2023-01-04T00:09:45.945Z,4.20
2023-01-04T00:12:12.778Z,4.12
2023-01-04T00:14:39.506Z,4.30
2023-01-04T00:17:06.364Z,4.34
2023-01-04T00:19:33.230Z,4.34
2023-01-04T00:21:59.956Z,4.29
2023-01-04T00:24:26.709Z,4.42
2023-01-04T00:26:53.455Z,4.28
2023-01-04T00:29:20.180Z,4.33
2023-01-04T00:31:47.119Z,4.41
2023-01-04T00:34:15.811Z,4.47
2023-01-04T00:36:43.095Z,4.46
2023-01-04T00:39:12.552Z,4.47
2023-01-04T00:41:59.726Z,4.47
2023-01-04T00:44:27.170Z,4.45
2023-01-04T00:46:53.999Z,4.38
2023-01-04T00:49:20.835Z,4.41
2023-01-04T00:51:47.761Z,4.38
2023-01-04T00:54:16.399Z,4.44
2023-01-04T00:56:44.012Z,4.45
2023-01-04T00:59:13.052Z,4.42
2023-01-04T01:01:40.823Z,4.36
2023-01-04T01:04:09.916Z,4.33
2023-01-04T01:06:36.745Z,4.31
2023-01-04T01:09:03.957Z,4.30
2023-01-04T01:11:30.888Z,4.28
2023-01-04T01:13:58.644Z,4.19
2023-01-04T01:16:53.198Z,4.18
2023-01-04T01:19:13.920Z,4.20
2023-01-04T01:21:41.080Z,4.20
2023-01-04T01:24:08.029Z,4.22
2023-01-04T01:26:34.798Z,4.21
2023-01-04T01:29:01.562Z,4.22
2023-01-04T01:31:29.266Z,4.18
2023-01-04T01:33:57.175Z,4.20
2023-01-04T01:36:26.339Z,4.17
2023-01-04T01:38:54.040Z,4.20
2023-01-04T01:41:26.550Z,4.16
2023-01-04T01:43:59.338Z,4.13
2023-01-04T01:46:26.166Z,4.13
2023-01-04T01:48:59.084Z,4.04
2023-01-04T01:51:27.294Z,3.97
2023-01-04T01:54:01.122Z,3.87
2023-01-04T01:56:30.698Z,3.73
2023-01-04T01:58:59.719Z,3.84
2023-01-04T02:01:28.164Z,3.69
2023-01-04T02:03:55.843Z,3.75
2023-01-04T02:06:37.245Z,3.81
2023-01-04T02:09:04.156Z,3.75
2023-01-04T02:11:31.385Z,3.77
2023-01-04T02:14:18.199Z,3.87
2023-01-04T02:16:53.962Z,3.94
2023-01-04T02:20:04.924Z,3.97
2023-01-04T02:23:09.262Z,4.03
2023-01-04T02:25:54.255Z,3.99
2023-01-04T02:28:30.144Z,4.02
2023-01-04T02:31:14.261Z,4.06
2023-01-04T02:33:48.176Z,3.97
2023-01-04T02:36:33.371Z,4.09
2023-01-04T02:39:18.123Z,4.03
2023-01-04T02:41:55.857Z,3.87
2023-01-04T02:44:47.843Z,4.09
2023-01-04T02:47:56.821Z,3.83
2023-01-04T02:50:31.849Z,4.06
2023-01-04T02:53:07.520Z,4.07
2023-01-04T02:55:49.582Z,4.06
2023-01-04T02:58:46.433Z,4.07
2023-01-04T03:02:09.016Z,4.15
2023-01-04T03:05:10.858Z,4.18
2023-01-04T03:07:56.021Z,4.22
2023-01-04T03:10:39.448Z,4.17
2023-01-04T03:13:13.971Z,4.16
2023-01-04T03:15:42.686Z,4.13
2023-01-04T03:18:27.050Z,4.21
2023-01-04T03:20:57.752Z,4.24
2023-01-04T03:23:48.481Z,4.21
2023-01-04T03:26:37.654Z,4.16
2023-01-04T03:29:33.918Z,4.22
2023-01-04T03:32:37.413Z,4.20
2023-01-04T03:35:22.840Z,4.23
2023-01-04T03:38:43.792Z,4.31
2023-01-04T03:41:56.252Z,4.34
2023-01-04T03:44:53.194Z,4.29
2023-01-04T03:47:48.403Z,4.21
2023-01-04T03:50:31.771Z,4.20
2023-01-04T03:52:59.562Z,4.05
2023-01-04T03:55:30.455Z,4.20
2023-01-04T03:57:59.308Z,4.11
2023-01-04T04:00:26.230Z,3.98
2023-01-04T04:02:52.979Z,4.11
2023-01-04T04:05:41.644Z,4.21
2023-01-04T04:08:27.535Z,4.25
2023-01-04T04:11:22.322Z,4.26
2023-01-04T04:13:50.444Z,4.20
2023-01-04T04:16:17.629Z,4.19
2023-01-04T04:18:44.404Z,4.24
2023-01-04T04:21:11.166Z,4.22
2023-01-04T04:23:37.915Z,4.17
2023-01-04T04:26:04.912Z,4.16
2023-01-04T04:28:31.616Z,4.17
2023-01-04T04:30:58.332Z,4.18
2023-01-04T04:33:25.102Z,4.21
2023-01-04T04:35:55.649Z,4.21
2023-01-04T04:38:22.925Z,4.31
2023-01-04T04:41:08.378Z,4.34
2023-01-04T04:43:35.779Z,4.33
2023-01-04T04:46:03.034Z,4.31
2023-01-04T04:48:29.928Z,4.22
2023-01-04T04:50:56.884Z,4.26
2023-01-04T04:53:23.691Z,4.27
2023-01-04T04:55:54.249Z,4.26
2023-01-04T04:58:21.741Z,4.26
2023-01-04T05:00:48.575Z,4.22
2023-01-04T05:03:15.437Z,4.28
2023-01-04T05:05:42.566Z,4.31
2023-01-04T05:08:09.525Z,4.31
2023-01-04T05:10:38.221Z,4.28
2023-01-04T05:13:06.863Z,4.35
2023-01-04T05:15:36.740Z,4.34
2023-01-04T05:18:05.524Z,4.33
2023-01-04T05:20:32.385Z,4.36
2023-01-04T05:22:59.197Z,4.34
2023-01-04T05:25:26.380Z,4.29
2023-01-04T05:27:53.085Z,4.32
2023-01-04T05:30:38.461Z,4.31
2023-01-04T05:33:06.053Z,4.33
2023-01-04T05:35:33.305Z,4.27
2023-01-04T05:38:00.458Z,4.33
2023-01-04T05:40:27.405Z,4.26
2023-01-04T05:42:54.314Z,4.30
2023-01-04T05:45:21.307Z,4.08
2023-01-04T05:47:54.733Z,4.05
2023-01-04T05:50:23.303Z,4.08
2023-01-04T05:52:51.194Z,4.14
2023-01-04T05:55:18.402Z,4.19
2023-01-04T05:57:44.980Z,4.22
2023-01-04T06:00:13.316Z,4.19
2023-01-04T06:02:41.547Z,4.17
2023-01-04T06:05:09.898Z,4.12
2023-01-04T06:07:37.575Z,4.19
2023-01-04T06:10:05.281Z,4.20
2023-01-04T06:12:32.004Z,4.23
2023-01-04T06:14:58.802Z,4.11
2023-01-04T06:17:26.809Z,4.10
2023-01-04T06:19:53.559Z,4.10
2023-01-04T06:22:21.084Z,4.13
2023-01-04T06:24:48.086Z,4.18
2023-01-04T06:27:14.880Z,4.11
2023-01-04T06:29:41.664Z,4.17
2023-01-04T06:32:08.442Z,4.17
2023-01-04T06:34:35.358Z,4.21
2023-01-04T06:37:02.399Z,4.16
2023-01-04T06:39:29.387Z,4.15
2023-01-04T06:42:01.931Z,4.14
2023-01-04T06:44:32.437Z,4.08
2023-01-04T06:46:59.149Z,4.19
2023-01-04T06:49:27.871Z,4.16
2023-01-04T06:51:54.664Z,4.27
2023-01-04T06:54:21.391Z,4.28
2023-01-04T06:56:48.184Z,4.27
2023-01-04T06:59:14.893Z,4.34
2023-01-04T07:01:41.744Z,4.34
2023-01-04T07:04:08.804Z,4.25
2023-01-04T07:06:36.764Z,4.19
2023-01-04T07:09:03.624Z,4.14
2023-01-04T07:11:30.360Z,3.88
2023-01-04T07:13:58.066Z,4.01
2023-01-04T07:16:24.914Z,3.99
2023-01-04T07:18:52.359Z,3.96
2023-01-04T07:21:19.081Z,4.02
2023-01-04T07:23:45.800Z,4.05
2023-01-04T07:26:12.536Z,4.05
2023-01-04T07:28:57.876Z,3.97
2023-01-04T07:31:24.661Z,3.99
2023-01-04T07:33:51.490Z,4.00
2023-01-04T07:36:18.281Z,4.07
2023-01-04T07:38:45.084Z,4.04
2023-01-04T07:41:11.974Z,3.98
2023-01-04T07:43:38.918Z,4.04
2023-01-04T07:46:05.792Z,3.96
2023-01-04T07:48:32.555Z,4.09
2023-01-04T07:50:59.309Z,4.16
2023-01-04T07:53:26.159Z,4.25
2023-01-04T07:55:58.502Z,4.30
2023-01-04T07:58:26.107Z,4.36
2023-01-04T08:00:52.929Z,4.40
2023-01-04T08:03:19.651Z,4.36
2023-01-04T08:05:46.782Z,4.36
2023-01-04T08:08:14.066Z,4.38
2023-01-04T08:10:40.857Z,4.31
2023-01-04T08:13:07.618Z,4.39
2023-01-04T08:15:34.921Z,4.35
2023-01-04T08:18:02.089Z,4.38
2023-01-04T08:20:28.820Z,4.41
2023-01-04T08:22:55.648Z,4.54
2023-01-04T08:25:22.419Z,4.61
2023-01-04T08:27:49.839Z,4.63
2023-01-04T08:30:16.564Z,4.74
2023-01-04T08:32:43.428Z,4.91
2023-01-04T08:35:10.160Z,5.09
2023-01-04T08:37:36.961Z,5.19
2023-01-04T08:40:03.972Z,5.21
2023-01-04T08:42:31.852Z,5.31
2023-01-04T08:45:01.595Z,5.42
2023-01-04T08:47:29.852Z,5.50
2023-01-04T08:49:57.523Z,5.57
2023-01-04T08:52:24.457Z,5.44
2023-01-04T08:54:51.450Z,5.50
2023-01-04T08:57:19.126Z,5.57
2023-01-04T08:59:45.973Z,5.81
2023-01-04T09:02:24.927Z,6.10
2023-01-04T09:04:52.408Z,6.26
2023-01-04T09:07:19.102Z,6.69
2023-01-04T09:09:45.854Z,6.97
2023-01-04T09:12:12.668Z,7.27
2023-01-04T09:14:39.709Z,7.69
2023-01-04T09:17:06.593Z,7.56
2023-01-04T09:19:33.514Z,7.19
2023-01-04T09:22:00.522Z,6.95
2023-01-04T09:24:28.050Z,7.08
2023-01-04T09:26:54.901Z,7.42
2023-01-04T09:29:21.803Z,7.85
2023-01-04T09:31:48.716Z,8.34
2023-01-04T09:34:17.550Z,8.45
2023-01-04T09:36:46.759Z,8.81
2023-01-04T09:39:21.657Z,8.94
2023-01-04T09:41:52.059Z,9.37
2023-01-04T09:47:46.199Z,10.04
2023-01-04T09:50:25.744Z,10.36
2023-01-04T09:53:11.794Z,10.65
2023-01-04T09:55:43.546Z,10.80
2023-01-04T09:58:24.823Z,10.90
2023-01-04T10:01:04.803Z,11.12
2023-01-04T10:03:38.730Z,11.48
2023-01-04T10:06:13.146Z,11.51
2023-01-04T10:08:42.504Z,11.44
2023-01-04T10:11:15.151Z,11.72
2023-01-04T10:14:03.892Z,11.86
2023-01-04T10:17:12.098Z,12.12
2023-01-04T10:22:49.283Z,12.52
2023-01-04T10:25:49.087Z,11.63
2023-01-04T10:28:42.873Z,11.52
2023-01-04T10:31:40.219Z,12.02
2023-01-04T10:34:48.841Z,12.51
2023-01-04T10:37:25.176Z,13.20
2023-01-04T10:39:55.703Z,13.58
2023-01-04T10:42:33.159Z,13.49
2023-01-04T10:45:18.148Z,13.67
2023-01-04T10:48:03.489Z,13.99
2023-01-04T10:50:52.168Z,14.22
2023-01-04T10:53:41.516Z,14.30
2023-01-04T10:56:30.067Z,14.14
2023-01-04T10:59:20.123Z,13.97
2023-01-04T11:02:24.065Z,14.24
2023-01-04T11:04:53.909Z,14.68
2023-01-04T11:07:41.763Z,14.58
2023-01-04T11:10:56.283Z,14.61
2023-01-04T11:13:24.198Z,14.98
2023-01-04T11:15:52.834Z,14.45
2023-01-04T11:18:19.884Z,13.84
2023-01-04T11:20:46.832Z,13.82
2023-01-04T11:23:19.684Z,13.97
2023-01-04T11:25:56.401Z,13.91
2023-01-04T11:28:35.667Z,14.26
2023-01-04T11:31:16.469Z,14.24
2023-01-04T11:34:03.020Z,14.39
2023-01-04T11:36:46.987Z,14.54
2023-01-04T11:39:25.339Z,14.54
2023-01-04T11:42:03.404Z,14.35
2023-01-04T11:44:33.005Z,14.34
2023-01-04T11:47:19.373Z,13.94
2023-01-04T11:49:46.369Z,13.62
2023-01-04T11:52:33.000Z,14.10
2023-01-04T11:55:25.481Z,14.39
2023-01-04T11:58:08.718Z,14.65
2023-01-04T12:00:35.570Z,14.31
2023-01-04T12:03:14.337Z,13.94
2023-01-04T12:05:41.382Z,13.96
2023-01-04T12:08:18.382Z,13.99
2023-01-04T12:10:45.284Z,13.66
2023-01-04T12:13:11.967Z,13.91
2023-01-04T12:16:03.377Z,14.51
2023-01-04T12:18:36.284Z,14.82
2023-01-04T12:21:03.911Z,14.97
2023-01-04T12:23:31.127Z,14.47
2023-01-04T12:25:58.142Z,14.48
2023-01-04T12:28:29.230Z,14.53
2023-01-04T12:30:56.118Z,14.60
2023-01-04T12:33:31.967Z,14.50
2023-01-04T12:36:13.470Z,14.50
2023-01-04T12:38:52.544Z,14.74
2023-01-04T12:41:20.951Z,14.77
2023-01-04T12:43:49.988Z,14.78
2023-01-04T12:46:47.637Z,14.27
2023-01-04T12:49:26.121Z,14.42
2023-01-04T12:55:24.004Z,14.14
2023-01-04T12:57:50.724Z,13.65
2023-01-04T13:00:17.770Z,13.64
2023-01-04T13:02:48.008Z,13.46
2023-01-04T13:08:11.649Z,13.63
2023-01-04T13:10:43.832Z,14.03
2023-01-04T13:13:28.688Z,14.32
2023-01-04T13:16:01.915Z,14.52
2023-01-04T13:18:48.195Z,14.71
2023-01-04T13:21:41.355Z,14.61
2023-01-04T13:24:39.061Z,14.74
2023-01-04T13:27:14.639Z,14.66
2023-01-04T13:29:42.410Z,14.55
2023-01-04T13:32:22.510Z,14.80
2023-01-04T13:34:56.269Z,14.10
2023-01-04T13:37:27.986Z,14.23
2023-01-04T13:40:12.124Z,14.53
2023-01-04T13:42:42.818Z,14.28
2023-01-04T13:45:37.721Z,14.41
2023-01-04T13:48:10.842Z,14.40
2023-01-04T13:50:47.291Z,14.06
2023-01-04T13:53:25.777Z,13.66
2023-01-04T13:55:57.791Z,13.62
2023-01-04T13:58:30.689Z,13.61
2023-01-04T14:01:14.009Z,13.60
2023-01-04T14:03:43.676Z,13.13
2023-01-04T14:06:10.347Z,13.23
2023-01-04T14:08:42.535Z,12.98
2023-01-04T14:11:41.473Z,13.03
2023-01-04T14:14:40.021Z,13.16
2023-01-04T14:17:12.874Z,13.38
2023-01-04T14:19:47.809Z,13.26
2023-01-04T14:22:23.476Z,13.49
2023-01-04T14:25:08.905Z,13.66
2023-01-04T14:27:42.606Z,13.58
2023-01-04T14:30:18.552Z,13.56
2023-01-04T14:33:00.592Z,13.66
2023-01-04T14:35:29.283Z,13.65
2023-01-04T14:38:03.170Z,13.46
2023-01-04T14:40:31.802Z,13.59
2023-01-04T14:42:58.905Z,13.61
2023-01-04T14:45:25.774Z,13.42
2023-01-04T14:47:52.912Z,13.15
2023-01-04T14:50:20.376Z,12.85
2023-01-04T14:52:51.474Z,12.37
2023-01-04T14:55:18.660Z,12.19
2023-01-04T14:57:45.770Z,12.20
2023-01-04T15:00:18.927Z,12.26
2023-01-04T15:02:51.116Z,12.08
2023-01-04T15:05:22.681Z,11.89
2023-01-04T15:07:49.509Z,11.70
2023-01-04T15:10:27.907Z,11.45
2023-01-04T15:12:56.234Z,11.15
2023-01-04T15:15:23.394Z,10.95
2023-01-04T15:17:50.277Z,10.70
2023-01-04T15:20:17.119Z,10.46
2023-01-04T15:22:44.285Z,10.34
2023-01-04T15:25:11.771Z,10.15
2023-01-04T15:27:42.256Z,9.98
2023-01-04T15:30:14.221Z,9.77
2023-01-04T15:32:41.991Z,9.60
2023-01-04T15:35:09.870Z,9.32
2023-01-04T15:37:36.707Z,9.35
2023-01-04T15:40:04.093Z,9.19
2023-01-04T15:42:49.681Z,8.98
2023-01-04T15:45:16.757Z,8.95
2023-01-04T15:47:43.559Z,8.90
2023-01-04T15:50:10.325Z,8.64
2023-01-04T15:52:37.016Z,8.62
2023-01-04T15:55:04.016Z,8.60
2023-01-04T15:57:30.824Z,8.45
2023-01-04T15:59:57.677Z,8.40
2023-01-04T16:02:24.857Z,8.33
2023-01-04T16:04:51.632Z,8.32
2023-01-04T16:07:18.425Z,8.21
2023-01-04T16:09:45.209Z,7.94
2023-01-04T16:12:30.862Z,8.00
2023-01-04T16:14:57.684Z,7.98
2023-01-04T16:17:25.314Z,7.95
2023-01-04T16:19:52.086Z,7.86
2023-01-04T16:22:18.917Z,7.80
2023-01-04T16:25:09.898Z,7.75
2023-01-04T16:27:35.736Z,7.66
2023-01-04T16:30:11.728Z,7.61
2023-01-04T16:32:41.655Z,7.54
2023-01-04T16:35:08.999Z,7.43
2023-01-04T16:37:36.326Z,7.40
2023-01-04T16:40:08.185Z,7.33
2023-01-04T16:42:37.750Z,7.26
2023-01-04T16:45:05.279Z,6.83
2023-01-04T16:47:41.102Z,6.55
2023-01-04T16:50:09.746Z,6.51
2023-01-04T16:52:36.758Z,6.49
2023-01-04T16:55:03.682Z,6.52
2023-01-04T16:57:30.413Z,6.41
2023-01-04T16:59:57.152Z,6.28
2023-01-04T17:02:24.151Z,6.30
2023-01-04T17:04:55.557Z,6.19
2023-01-04T17:07:22.612Z,6.10
2023-01-04T17:09:50.088Z,6.15
2023-01-04T17:17:50.804Z,6.09
2023-01-04T17:20:17.752Z,6.11
2023-01-04T17:22:44.933Z,6.06
2023-01-04T17:25:11.828Z,6.11
2023-01-04T17:27:38.558Z,6.05
2023-01-04T17:30:05.914Z,5.92
2023-01-04T17:32:32.633Z,5.95
2023-01-04T17:34:59.413Z,5.73
2023-01-04T17:37:26.617Z,5.74
2023-01-04T17:39:53.465Z,5.64
2023-01-04T17:42:20.145Z,5.51
2023-01-04T17:44:48.231Z,5.49
2023-01-04T17:47:15.390Z,5.42
2023-01-04T17:49:42.023Z,5.43
2023-01-04T17:52:09.186Z,5.34
2023-01-04T17:54:38.026Z,5.32
2023-01-04T17:57:04.872Z,5.32
2023-01-04T17:59:31.542Z,5.39
2023-01-04T18:01:58.371Z,5.36
2023-01-04T18:04:25.157Z,5.34
2023-01-04T18:06:51.878Z,5.33
2023-01-04T18:09:22.234Z,5.37
2023-01-04T18:11:51.312Z,5.20
2023-01-04T18:14:18.438Z,5.10
2023-01-04T18:16:57.873Z,4.81
2023-01-04T18:19:30.348Z,4.74
2023-01-04T18:21:58.004Z,4.65
2023-01-04T18:24:41.603Z,4.65
2023-01-04T18:27:26.880Z,4.41
2023-01-04T18:29:55.376Z,4.64
2023-01-04T18:32:23.617Z,4.65
2023-01-04T18:34:50.360Z,4.69
2023-01-04T18:37:18.545Z,4.74
2023-01-04T18:39:45.968Z,4.75
2023-01-04T18:42:12.676Z,4.79
2023-01-04T18:44:44.169Z,4.77
2023-01-04T18:47:14.441Z,4.91
2023-01-04T18:49:41.255Z,4.96
2023-01-04T18:52:08.083Z,4.91
2023-01-04T18:54:34.810Z,5.00
2023-01-04T18:57:01.881Z,4.98
2023-01-04T18:59:29.380Z,5.11
2023-01-04T19:02:01.543Z,5.11
2023-01-04T19:04:30.928Z,4.95
2023-01-04T19:06:58.099Z,4.76
2023-01-04T19:09:24.978Z,4.73
2023-01-04T19:11:51.834Z,4.67
2023-01-04T19:14:18.713Z,4.67
2023-01-04T19:16:45.610Z,4.62
2023-01-04T19:19:12.729Z,4.56
2023-01-04T19:21:39.706Z,4.62
2023-01-04T19:24:06.807Z,4.68
2023-01-04T19:26:33.485Z,4.73
2023-01-04T19:29:00.673Z,4.61
2023-01-04T19:31:27.261Z,4.59
2023-01-04T19:33:53.967Z,4.54
2023-01-04T19:36:20.766Z,4.47
2023-01-04T19:38:47.493Z,4.53
2023-01-04T19:41:20.908Z,4.46
2023-01-04T19:43:48.278Z,4.42
2023-01-04T19:46:16.006Z,4.28
2023-01-04T19:48:43.239Z,4.29
2023-01-04T19:51:11.388Z,4.28
2023-01-04T19:53:38.717Z,4.28
2023-01-04T19:56:05.873Z,4.25
2023-01-04T19:58:32.753Z,4.14
2023-01-04T20:00:59.757Z,3.93
2023-01-04T20:03:26.954Z,3.80
2023-01-04T20:05:54.960Z,3.81
2023-01-04T20:08:22.344Z,3.86
2023-01-04T20:10:57.069Z,3.96
2023-01-04T20:13:24.078Z,4.02
2023-01-04T20:15:52.212Z,4.02
2023-01-04T20:18:19.977Z,3.93
2023-01-04T20:20:47.231Z,3.98
2023-01-04T20:23:14.211Z,4.00
2023-01-04T20:25:43.220Z,3.95
2023-01-04T20:28:10.628Z,3.99
2023-01-04T20:30:38.328Z,3.92
2023-01-04T20:33:05.702Z,3.97
2023-01-04T20:35:32.528Z,4.01
2023-01-04T20:37:59.396Z,4.00
2023-01-04T20:40:27.772Z,3.93
2023-01-04T20:43:13.160Z,3.91
2023-01-04T20:45:44.873Z,3.83
2023-01-04T20:48:12.436Z,3.65
2023-01-04T20:50:39.823Z,3.68
2023-01-04T20:53:06.678Z,3.69
2023-01-04T20:55:40.241Z,3.77
2023-01-04T20:58:14.404Z,3.77
2023-01-04T21:00:42.322Z,3.76
2023-01-04T21:03:11.285Z,3.58
2023-01-04T21:05:42.159Z,3.68
2023-01-04T21:08:10.249Z,3.44
2023-01-04T21:10:41.545Z,3.30
2023-01-04T21:13:09.482Z,3.33
2023-01-04T21:15:37.580Z,3.29
2023-01-04T21:18:06.669Z,3.28
2023-01-04T21:20:34.386Z,3.37
2023-01-04T21:23:01.513Z,3.35
2023-01-04T21:25:28.511Z,3.39
2023-01-04T21:27:55.768Z,3.31
2023-01-04T21:30:23.097Z,3.32
2023-01-04T21:32:50.019Z,3.32
2023-01-04T21:35:17.114Z,3.27
2023-01-04T21:37:44.242Z,3.20
2023-01-04T21:40:11.474Z,3.04
2023-01-04T21:42:38.024Z,2.83
2023-01-04T21:45:05.579Z,2.68
2023-01-04T21:47:35.762Z,2.70
2023-01-04T21:50:02.475Z,2.83
2023-01-04T21:52:29.239Z,2.93
2023-01-04T21:54:55.962Z,2.96
2023-01-04T21:57:22.734Z,3.25
2023-01-04T21:59:49.545Z,3.06
2023-01-04T22:02:18.527Z,3.03
2023-01-04T22:04:46.123Z,2.95
2023-01-04T22:07:13.421Z,2.95
2023-01-04T22:09:40.024Z,2.83
2023-01-04T22:12:07.221Z,2.73
2023-01-04T22:14:33.917Z,2.74
2023-01-04T22:17:01.118Z,2.52
2023-01-04T22:19:28.527Z,2.54
2023-01-04T22:21:55.323Z,2.51
2023-01-04T22:24:22.114Z,2.50
2023-01-04T22:26:50.689Z,2.52
2023-01-04T22:29:18.674Z,2.47
2023-01-04T22:31:45.488Z,2.48
2023-01-04T22:34:12.541Z,2.33
2023-01-04T22:36:39.265Z,2.18
2023-01-04T22:39:06.929Z,2.06
2023-01-04T22:41:34.003Z,2.17
2023-01-04T22:44:03.613Z,2.25
2023-01-04T22:46:32.006Z,2.29
2023-01-04T22:49:00.625Z,2.36
2023-01-04T22:51:31.013Z,2.31
2023-01-04T22:54:00.259Z,2.14
2023-01-04T22:56:28.215Z,2.08
2023-01-04T22:58:56.636Z,2.15
2023-01-04T23:01:25.318Z,2.14
2023-01-04T23:03:52.573Z,1.96
2023-01-04T23:06:19.658Z,2.10
2023-01-04T23:08:46.449Z,2.22
2023-01-04T23:11:16.764Z,2.14
2023-01-04T23:13:44.141Z,1.98
2023-01-04T23:16:14.055Z,2.02
2023-01-04T23:18:40.967Z,2.07
2023-01-04T23:21:08.833Z,2.08
2023-01-04T23:23:35.765Z,2.11
2023-01-04T23:26:07.435Z,2.00
2023-01-04T23:28:37.132Z,2.04
2023-01-04T23:31:06.467Z,1.88
2023-01-04T23:33:36.350Z,1.91
2023-01-04T23:36:15.206Z,1.78
2023-01-04T23:38:43.255Z,1.88
2023-01-04T23:41:10.703Z,1.89
2023-01-04T23:43:38.767Z,1.96
2023-01-04T23:46:14.195Z,1.89
2023-01-04T23:48:41.777Z,2.00
2023-01-04T23:51:09.351Z,2.03
2023-01-04T23:53:36.110Z,2.00
2023-01-04T23:56:08.307Z,2.03
2023-01-04T23:58:35.080Z,1.96
